Terminal Aerodrome Forecast
Issued by NWS

Home | Current Version | Previous Version | Text Only | Print | Product List | Glossary On
Versions: 1 2 3 4 5 6 7 8 9 10 11
000
FTUS45 KABQ 200538
TAFLVS
TAF
KLVS 200538Z 2006/2106 22025G35KT P6SM SCT070
     FM201200 23015G22KT P6SM FEW040
     FM201600 25022G30KT P6SM FEW050
     FM210100 22010KT P6SM FEW060=

USA.gov is the U.S. government's official web portal to all federal, state and local government web resources and services.